sensor_id;sensor_type;location;lat;lon;timestamp;P1;durP1;ratioP1;P2;durP2;ratioP2
28086;SDS011;15392;48.912;8.380;2023-11-22T00:00:53;1.52;;;1.52;;
28086;SDS011;15392;48.912;8.380;2023-11-22T00:03:39;1.33;;;1.33;;
28086;SDS011;15392;48.912;8.380;2023-11-22T00:06:25;1.50;;;1.40;;
28086;SDS011;15392;48.912;8.380;2023-11-22T00:09:12;1.27;;;1.27;;
28086;SDS011;15392;48.912;8.380;2023-11-22T00:11:58;1.00;;;1.00;;
28086;SDS011;15392;48.912;8.380;2023-11-22T00:14:45;1.20;;;1.20;;
28086;SDS011;15392;48.912;8.380;2023-11-22T00:17:32;0.95;;;0.95;;
28086;SDS011;15392;48.912;8.380;2023-11-22T00:20:19;0.98;;;0.98;;
28086;SDS011;15392;48.912;8.380;2023-11-22T00:23:06;1.00;;;1.00;;
28086;SDS011;15392;48.912;8.380;2023-11-22T00:25:52;0.90;;;0.90;;
28086;SDS011;15392;48.912;8.380;2023-11-22T00:28:38;0.93;;;0.93;;
28086;SDS011;15392;48.912;8.380;2023-11-22T00:31:24;0.90;;;0.90;;
28086;SDS011;15392;48.912;8.380;2023-11-22T00:34:10;0.80;;;0.80;;
28086;SDS011;15392;48.912;8.380;2023-11-22T00:36:56;0.80;;;0.80;;
28086;SDS011;15392;48.912;8.380;2023-11-22T00:39:42;0.65;;;0.65;;
28086;SDS011;15392;48.912;8.380;2023-11-22T00:42:28;0.85;;;0.85;;
28086;SDS011;15392;48.912;8.380;2023-11-22T00:45:14;0.80;;;0.80;;
28086;SDS011;15392;48.912;8.380;2023-11-22T00:48:00;0.90;;;0.90;;
28086;SDS011;15392;48.912;8.380;2023-11-22T00:50:47;1.00;;;1.00;;
28086;SDS011;15392;48.912;8.380;2023-11-22T00:53:33;0.80;;;0.80;;
28086;SDS011;15392;48.912;8.380;2023-11-22T00:56:21;0.95;;;0.95;;
28086;SDS011;15392;48.912;8.380;2023-11-22T00:59:07;0.70;;;0.70;;
28086;SDS011;15392;48.912;8.380;2023-11-22T01:01:53;0.63;;;0.63;;
28086;SDS011;15392;48.912;8.380;2023-11-22T01:04:40;0.70;;;0.70;;
28086;SDS011;15392;48.912;8.380;2023-11-22T01:07:26;0.70;;;0.70;;
28086;SDS011;15392;48.912;8.380;2023-11-22T01:10:12;0.60;;;0.60;;
28086;SDS011;15392;48.912;8.380;2023-11-22T01:12:58;0.60;;;0.60;;
28086;SDS011;15392;48.912;8.380;2023-11-22T01:15:44;0.70;;;0.70;;
28086;SDS011;15392;48.912;8.380;2023-11-22T01:18:30;2.55;;;0.70;;
28086;SDS011;15392;48.912;8.380;2023-11-22T01:21:16;0.68;;;0.68;;
28086;SDS011;15392;48.912;8.380;2023-11-22T01:24:02;0.65;;;0.65;;
28086;SDS011;15392;48.912;8.380;2023-11-22T01:26:48;0.68;;;0.68;;
28086;SDS011;15392;48.912;8.380;2023-11-22T01:29:35;0.60;;;0.60;;
28086;SDS011;15392;48.912;8.380;2023-11-22T01:32:21;0.80;;;0.80;;
28086;SDS011;15392;48.912;8.380;2023-11-22T01:35:07;0.70;;;0.70;;
28086;SDS011;15392;48.912;8.380;2023-11-22T01:37:53;0.60;;;0.60;;
28086;SDS011;15392;48.912;8.380;2023-11-22T01:40:46;0.65;;;0.65;;
28086;SDS011;15392;48.912;8.380;2023-11-22T01:43:33;0.60;;;0.60;;
28086;SDS011;15392;48.912;8.380;2023-11-22T01:46:22;0.60;;;0.60;;
28086;SDS011;15392;48.912;8.380;2023-11-22T01:49:10;0.60;;;0.60;;
28086;SDS011;15392;48.912;8.380;2023-11-22T01:51:57;0.63;;;0.63;;
28086;SDS011;15392;48.912;8.380;2023-11-22T01:54:43;0.70;;;0.70;;
28086;SDS011;15392;48.912;8.380;2023-11-22T01:57:29;0.70;;;0.70;;
28086;SDS011;15392;48.912;8.380;2023-11-22T02:00:19;0.73;;;0.73;;
28086;SDS011;15392;48.912;8.380;2023-11-22T02:03:06;0.60;;;0.60;;
28086;SDS011;15392;48.912;8.380;2023-11-22T02:05:53;0.68;;;0.68;;
28086;SDS011;15392;48.912;8.380;2023-11-22T02:08:39;1.30;;;0.73;;
28086;SDS011;15392;48.912;8.380;2023-11-22T02:11:25;0.73;;;0.73;;
28086;SDS011;15392;48.912;8.380;2023-11-22T02:14:12;0.65;;;0.65;;
28086;SDS011;15392;48.912;8.380;2023-11-22T02:16:58;0.55;;;0.55;;
28086;SDS011;15392;48.912;8.380;2023-11-22T02:19:45;0.40;;;0.40;;
28086;SDS011;15392;48.912;8.380;2023-11-22T02:22:31;0.50;;;0.50;;
28086;SDS011;15392;48.912;8.380;2023-11-22T02:25:17;0.40;;;0.40;;
28086;SDS011;15392;48.912;8.380;2023-11-22T02:28:03;0.40;;;0.40;;
28086;SDS011;15392;48.912;8.380;2023-11-22T02:30:49;0.40;;;0.40;;
28086;SDS011;15392;48.912;8.380;2023-11-22T02:33:35;0.30;;;0.30;;
28086;SDS011;15392;48.912;8.380;2023-11-22T02:36:24;0.35;;;0.35;;
28086;SDS011;15392;48.912;8.380;2023-11-22T02:39:11;0.50;;;0.50;;
28086;SDS011;15392;48.912;8.380;2023-11-22T02:42:00;0.75;;;0.43;;
28086;SDS011;15392;48.912;8.380;2023-11-22T02:44:49;0.50;;;0.50;;
28086;SDS011;15392;48.912;8.380;2023-11-22T02:47:35;0.43;;;0.43;;
28086;SDS011;15392;48.912;8.380;2023-11-22T02:50:21;0.40;;;0.40;;
28086;SDS011;15392;48.912;8.380;2023-11-22T02:53:07;0.35;;;0.35;;
28086;SDS011;15392;48.912;8.380;2023-11-22T02:55:53;0.40;;;0.40;;
28086;SDS011;15392;48.912;8.380;2023-11-22T02:58:41;0.40;;;0.40;;
28086;SDS011;15392;48.912;8.380;2023-11-22T03:01:27;0.50;;;0.50;;
28086;SDS011;15392;48.912;8.380;2023-11-22T03:04:13;0.50;;;0.50;;
28086;SDS011;15392;48.912;8.380;2023-11-22T03:06:59;0.50;;;0.50;;
28086;SDS011;15392;48.912;8.380;2023-11-22T03:09:45;0.45;;;0.45;;
28086;SDS011;15392;48.912;8.380;2023-11-22T03:12:31;0.40;;;0.40;;
28086;SDS011;15392;48.912;8.380;2023-11-22T03:15:17;0.40;;;0.40;;
28086;SDS011;15392;48.912;8.380;2023-11-22T03:18:04;0.40;;;0.40;;
28086;SDS011;15392;48.912;8.380;2023-11-22T03:20:51;0.40;;;0.40;;
28086;SDS011;15392;48.912;8.380;2023-11-22T03:23:39;0.30;;;0.30;;
28086;SDS011;15392;48.912;8.380;2023-11-22T03:26:25;0.40;;;0.40;;
28086;SDS011;15392;48.912;8.380;2023-11-22T03:29:11;0.35;;;0.35;;
28086;SDS011;15392;48.912;8.380;2023-11-22T03:32:01;0.30;;;0.30;;
28086;SDS011;15392;48.912;8.380;2023-11-22T03:34:47;0.40;;;0.40;;
28086;SDS011;15392;48.912;8.380;2023-11-22T03:37:34;0.40;;;0.40;;
28086;SDS011;15392;48.912;8.380;2023-11-22T03:40:20;0.20;;;0.20;;
28086;SDS011;15392;48.912;8.380;2023-11-22T03:43:06;0.40;;;0.40;;
28086;SDS011;15392;48.912;8.380;2023-11-22T03:45:55;0.30;;;0.30;;
28086;SDS011;15392;48.912;8.380;2023-11-22T03:48:41;0.45;;;0.45;;
28086;SDS011;15392;48.912;8.380;2023-11-22T03:51:28;0.20;;;0.20;;
28086;SDS011;15392;48.912;8.380;2023-11-22T03:54:14;0.28;;;0.28;;
28086;SDS011;15392;48.912;8.380;2023-11-22T03:57:00;0.30;;;0.30;;
28086;SDS011;15392;48.912;8.380;2023-11-22T03:59:47;0.43;;;0.43;;
28086;SDS011;15392;48.912;8.380;2023-11-22T04:02:34;0.50;;;0.50;;
28086;SDS011;15392;48.912;8.380;2023-11-22T04:05:19;0.40;;;0.40;;
28086;SDS011;15392;48.912;8.380;2023-11-22T04:08:05;0.45;;;0.45;;
28086;SDS011;15392;48.912;8.380;2023-11-22T04:10:53;0.50;;;0.50;;
28086;SDS011;15392;48.912;8.380;2023-11-22T04:13:39;0.35;;;0.35;;
28086;SDS011;15392;48.912;8.380;2023-11-22T04:16:26;0.50;;;0.50;;
28086;SDS011;15392;48.912;8.380;2023-11-22T04:19:12;0.60;;;0.60;;
28086;SDS011;15392;48.912;8.380;2023-11-22T04:21:58;0.77;;;0.77;;
28086;SDS011;15392;48.912;8.380;2023-11-22T04:24:44;0.70;;;0.70;;
28086;SDS011;15392;48.912;8.380;2023-11-22T04:27:31;0.90;;;0.60;;
28086;SDS011;15392;48.912;8.380;2023-11-22T04:30:18;0.70;;;0.70;;
28086;SDS011;15392;48.912;8.380;2023-11-22T04:33:04;0.77;;;0.77;;
28086;SDS011;15392;48.912;8.380;2023-11-22T04:35:51;0.60;;;0.60;;
28086;SDS011;15392;48.912;8.380;2023-11-22T04:38:37;0.60;;;0.60;;
28086;SDS011;15392;48.912;8.380;2023-11-22T04:41:23;0.70;;;0.70;;
28086;SDS011;15392;48.912;8.380;2023-11-22T04:44:10;0.77;;;0.77;;
28086;SDS011;15392;48.912;8.380;2023-11-22T04:46:56;0.70;;;0.70;;
28086;SDS011;15392;48.912;8.380;2023-11-22T04:49:44;0.68;;;0.68;;
28086;SDS011;15392;48.912;8.380;2023-11-22T04:52:30;0.50;;;0.50;;
28086;SDS011;15392;48.912;8.380;2023-11-22T04:55:17;0.70;;;0.70;;
28086;SDS011;15392;48.912;8.380;2023-11-22T04:58:08;0.70;;;0.70;;
28086;SDS011;15392;48.912;8.380;2023-11-22T05:00:54;0.77;;;0.77;;
28086;SDS011;15392;48.912;8.380;2023-11-22T05:03:42;0.60;;;0.60;;
28086;SDS011;15392;48.912;8.380;2023-11-22T05:06:28;0.60;;;0.60;;
28086;SDS011;15392;48.912;8.380;2023-11-22T05:09:14;0.63;;;0.63;;
28086;SDS011;15392;48.912;8.380;2023-11-22T05:12:03;0.65;;;0.65;;
28086;SDS011;15392;48.912;8.380;2023-11-22T05:14:49;0.70;;;0.70;;
28086;SDS011;15392;48.912;8.380;2023-11-22T05:17:35;0.60;;;0.60;;
28086;SDS011;15392;48.912;8.380;2023-11-22T05:20:21;0.60;;;0.60;;
28086;SDS011;15392;48.912;8.380;2023-11-22T05:23:07;0.60;;;0.60;;
28086;SDS011;15392;48.912;8.380;2023-11-22T05:25:53;0.60;;;0.60;;
28086;SDS011;15392;48.912;8.380;2023-11-22T05:28:39;0.70;;;0.70;;
28086;SDS011;15392;48.912;8.380;2023-11-22T05:31:25;0.70;;;0.70;;
28086;SDS011;15392;48.912;8.380;2023-11-22T05:34:11;0.65;;;0.65;;
28086;SDS011;15392;48.912;8.380;2023-11-22T05:36:57;0.57;;;0.57;;
28086;SDS011;15392;48.912;8.380;2023-11-22T05:39:44;0.60;;;0.60;;
28086;SDS011;15392;48.912;8.380;2023-11-22T05:42:30;0.60;;;0.60;;
28086;SDS011;15392;48.912;8.380;2023-11-22T05:45:17;0.70;;;0.70;;
28086;SDS011;15392;48.912;8.380;2023-11-22T05:48:03;0.60;;;0.60;;
28086;SDS011;15392;48.912;8.380;2023-11-22T05:50:49;0.60;;;0.60;;
28086;SDS011;15392;48.912;8.380;2023-11-22T05:53:35;0.60;;;0.60;;
28086;SDS011;15392;48.912;8.380;2023-11-22T05:56:21;0.60;;;0.60;;
28086;SDS011;15392;48.912;8.380;2023-11-22T05:59:07;0.50;;;0.50;;
28086;SDS011;15392;48.912;8.380;2023-11-22T06:01:53;0.60;;;0.60;;
28086;SDS011;15392;48.912;8.380;2023-11-22T06:04:39;0.85;;;0.85;;
28086;SDS011;15392;48.912;8.380;2023-11-22T06:07:26;0.65;;;0.65;;
28086;SDS011;15392;48.912;8.380;2023-11-22T06:10:12;1.27;;;0.70;;
28086;SDS011;15392;48.912;8.380;2023-11-22T06:12:59;0.60;;;0.60;;
28086;SDS011;15392;48.912;8.380;2023-11-22T06:15:46;0.77;;;0.77;;
28086;SDS011;15392;48.912;8.380;2023-11-22T06:18:32;0.63;;;0.63;;
28086;SDS011;15392;48.912;8.380;2023-11-22T06:21:18;0.60;;;0.60;;
28086;SDS011;15392;48.912;8.380;2023-11-22T06:24:05;0.60;;;0.60;;
28086;SDS011;15392;48.912;8.380;2023-11-22T06:26:54;0.63;;;0.63;;
28086;SDS011;15392;48.912;8.380;2023-11-22T06:29:40;0.70;;;0.70;;
28086;SDS011;15392;48.912;8.380;2023-11-22T06:32:28;0.65;;;0.65;;
28086;SDS011;15392;48.912;8.380;2023-11-22T06:35:14;0.63;;;0.63;;
28086;SDS011;15392;48.912;8.380;2023-11-22T06:38:00;0.60;;;0.60;;
28086;SDS011;15392;48.912;8.380;2023-11-22T06:40:46;0.70;;;0.70;;
28086;SDS011;15392;48.912;8.380;2023-11-22T06:43:32;0.70;;;0.70;;
28086;SDS011;15392;48.912;8.380;2023-11-22T06:46:18;0.82;;;0.82;;
28086;SDS011;15392;48.912;8.380;2023-11-22T06:49:04;0.98;;;0.90;;
28086;SDS011;15392;48.912;8.380;2023-11-22T06:51:51;1.00;;;1.00;;
28086;SDS011;15392;48.912;8.380;2023-11-22T06:54:37;1.08;;;1.08;;
28086;SDS011;15392;48.912;8.380;2023-11-22T06:57:23;0.95;;;0.95;;
28086;SDS011;15392;48.912;8.380;2023-11-22T07:00:14;0.75;;;0.75;;
28086;SDS011;15392;48.912;8.380;2023-11-22T07:03:02;0.70;;;0.70;;
28086;SDS011;15392;48.912;8.380;2023-11-22T07:05:48;0.80;;;0.80;;
28086;SDS011;15392;48.912;8.380;2023-11-22T07:08:34;0.70;;;0.70;;
28086;SDS011;15392;48.912;8.380;2023-11-22T07:11:23;0.75;;;0.75;;
28086;SDS011;15392;48.912;8.380;2023-11-22T07:14:10;0.68;;;0.68;;
28086;SDS011;15392;48.912;8.380;2023-11-22T07:16:56;0.77;;;0.77;;
28086;SDS011;15392;48.912;8.380;2023-11-22T07:19:42;0.70;;;0.70;;
28086;SDS011;15392;48.912;8.380;2023-11-22T07:22:32;0.75;;;0.75;;
28086;SDS011;15392;48.912;8.380;2023-11-22T07:25:18;1.00;;;1.00;;
28086;SDS011;15392;48.912;8.380;2023-11-22T07:28:04;0.80;;;0.80;;
28086;SDS011;15392;48.912;8.380;2023-11-22T07:30:50;0.60;;;0.60;;
28086;SDS011;15392;48.912;8.380;2023-11-22T07:33:37;0.73;;;0.73;;
28086;SDS011;15392;48.912;8.380;2023-11-22T07:36:24;0.70;;;0.70;;
28086;SDS011;15392;48.912;8.380;2023-11-22T07:39:10;0.80;;;0.80;;
28086;SDS011;15392;48.912;8.380;2023-11-22T07:41:57;0.60;;;0.60;;
28086;SDS011;15392;48.912;8.380;2023-11-22T07:44:43;0.90;;;0.90;;
28086;SDS011;15392;48.912;8.380;2023-11-22T07:47:29;0.77;;;0.77;;
28086;SDS011;15392;48.912;8.380;2023-11-22T07:50:15;0.60;;;0.60;;
28086;SDS011;15392;48.912;8.380;2023-11-22T07:53:01;0.70;;;0.70;;
28086;SDS011;15392;48.912;8.380;2023-11-22T07:55:49;0.75;;;0.75;;
28086;SDS011;15392;48.912;8.380;2023-11-22T07:58:35;0.68;;;0.68;;
28086;SDS011;15392;48.912;8.380;2023-11-22T08:01:21;0.70;;;0.70;;
28086;SDS011;15392;48.912;8.380;2023-11-22T08:04:07;0.70;;;0.70;;
28086;SDS011;15392;48.912;8.380;2023-11-22T08:06:54;0.80;;;0.80;;
28086;SDS011;15392;48.912;8.380;2023-11-22T08:09:42;0.80;;;0.80;;
28086;SDS011;15392;48.912;8.380;2023-11-22T08:12:28;0.80;;;0.80;;
28086;SDS011;15392;48.912;8.380;2023-11-22T08:15:14;0.60;;;0.60;;
28086;SDS011;15392;48.912;8.380;2023-11-22T08:18:01;0.85;;;0.85;;
28086;SDS011;15392;48.912;8.380;2023-11-22T08:20:47;0.90;;;0.90;;
28086;SDS011;15392;48.912;8.380;2023-11-22T08:23:33;0.93;;;0.93;;
28086;SDS011;15392;48.912;8.380;2023-11-22T08:26:19;0.90;;;0.90;;
28086;SDS011;15392;48.912;8.380;2023-11-22T08:29:05;0.80;;;0.80;;
28086;SDS011;15392;48.912;8.380;2023-11-22T08:31:52;0.82;;;0.82;;
28086;SDS011;15392;48.912;8.380;2023-11-22T08:34:38;0.77;;;0.77;;
28086;SDS011;15392;48.912;8.380;2023-11-22T08:37:24;0.82;;;0.82;;
28086;SDS011;15392;48.912;8.380;2023-11-22T08:40:11;1.00;;;1.00;;
28086;SDS011;15392;48.912;8.380;2023-11-22T08:42:59;0.90;;;0.90;;
28086;SDS011;15392;48.912;8.380;2023-11-22T08:45:45;0.90;;;0.90;;
28086;SDS011;15392;48.912;8.380;2023-11-22T08:48:31;0.82;;;0.82;;
28086;SDS011;15392;48.912;8.380;2023-11-22T08:51:17;0.80;;;0.80;;
28086;SDS011;15392;48.912;8.380;2023-11-22T08:54:03;0.90;;;0.90;;
28086;SDS011;15392;48.912;8.380;2023-11-22T08:56:50;0.90;;;0.90;;
28086;SDS011;15392;48.912;8.380;2023-11-22T08:59:37;0.80;;;0.80;;
28086;SDS011;15392;48.912;8.380;2023-11-22T09:02:23;0.77;;;0.77;;
28086;SDS011;15392;48.912;8.380;2023-11-22T09:05:09;0.77;;;0.77;;
28086;SDS011;15392;48.912;8.380;2023-11-22T09:07:57;0.77;;;0.77;;
28086;SDS011;15392;48.912;8.380;2023-11-22T09:10:46;0.80;;;0.80;;
28086;SDS011;15392;48.912;8.380;2023-11-22T09:13:32;0.90;;;0.90;;
28086;SDS011;15392;48.912;8.380;2023-11-22T09:16:20;0.85;;;0.85;;
28086;SDS011;15392;48.912;8.380;2023-11-22T09:19:08;0.70;;;0.70;;
28086;SDS011;15392;48.912;8.380;2023-11-22T09:21:54;0.90;;;0.90;;
28086;SDS011;15392;48.912;8.380;2023-11-22T09:24:40;0.80;;;0.80;;
28086;SDS011;15392;48.912;8.380;2023-11-22T09:27:27;0.70;;;0.70;;
28086;SDS011;15392;48.912;8.380;2023-11-22T09:30:13;0.93;;;0.93;;
28086;SDS011;15392;48.912;8.380;2023-11-22T09:33:17;1.00;;;1.00;;
28086;SDS011;15392;48.912;8.380;2023-11-22T09:36:04;0.75;;;0.75;;
28086;SDS011;15392;48.912;8.380;2023-11-22T09:38:50;1.00;;;1.00;;
28086;SDS011;15392;48.912;8.380;2023-11-22T09:41:37;0.80;;;0.80;;
28086;SDS011;15392;48.912;8.380;2023-11-22T09:44:24;0.90;;;0.90;;
28086;SDS011;15392;48.912;8.380;2023-11-22T09:47:10;0.80;;;0.80;;
28086;SDS011;15392;48.912;8.380;2023-11-22T09:49:56;1.00;;;1.00;;
28086;SDS011;15392;48.912;8.380;2023-11-22T09:52:50;0.98;;;0.98;;
28086;SDS011;15392;48.912;8.380;2023-11-22T09:55:39;0.80;;;0.80;;
28086;SDS011;15392;48.912;8.380;2023-11-22T09:58:30;0.95;;;0.95;;
28086;SDS011;15392;48.912;8.380;2023-11-22T10:01:18;0.95;;;0.95;;
28086;SDS011;15392;48.912;8.380;2023-11-22T10:04:04;1.13;;;1.13;;
28086;SDS011;15392;48.912;8.380;2023-11-22T10:06:53;1.05;;;1.05;;
28086;SDS011;15392;48.912;8.380;2023-11-22T10:09:39;1.10;;;1.10;;
28086;SDS011;15392;48.912;8.380;2023-11-22T10:12:29;1.00;;;1.00;;
28086;SDS011;15392;48.912;8.380;2023-11-22T10:15:16;0.90;;;0.90;;
28086;SDS011;15392;48.912;8.380;2023-11-22T10:18:04;0.80;;;0.80;;
28086;SDS011;15392;48.912;8.380;2023-11-22T10:20:52;0.77;;;0.77;;
28086;SDS011;15392;48.912;8.380;2023-11-22T10:23:38;0.90;;;0.90;;
28086;SDS011;15392;48.912;8.380;2023-11-22T10:26:26;0.88;;;0.88;;
28086;SDS011;15392;48.912;8.380;2023-11-22T10:29:13;0.77;;;0.77;;
28086;SDS011;15392;48.912;8.380;2023-11-22T10:31:59;0.93;;;0.93;;
28086;SDS011;15392;48.912;8.380;2023-11-22T10:34:46;0.90;;;0.90;;
28086;SDS011;15392;48.912;8.380;2023-11-22T10:37:32;0.90;;;0.90;;
28086;SDS011;15392;48.912;8.380;2023-11-22T10:40:19;0.90;;;0.90;;
28086;SDS011;15392;48.912;8.380;2023-11-22T10:43:06;0.80;;;0.80;;
28086;SDS011;15392;48.912;8.380;2023-11-22T10:45:53;0.80;;;0.80;;
28086;SDS011;15392;48.912;8.380;2023-11-22T10:48:40;0.88;;;0.88;;
28086;SDS011;15392;48.912;8.380;2023-11-22T10:51:31;0.80;;;0.80;;
28086;SDS011;15392;48.912;8.380;2023-11-22T10:54:20;1.00;;;1.00;;
28086;SDS011;15392;48.912;8.380;2023-11-22T10:57:07;0.68;;;0.68;;
28086;SDS011;15392;48.912;8.380;2023-11-22T10:59:54;0.95;;;0.95;;
28086;SDS011;15392;48.912;8.380;2023-11-22T11:02:44;0.80;;;0.80;;
28086;SDS011;15392;48.912;8.380;2023-11-22T11:05:34;0.90;;;0.90;;
28086;SDS011;15392;48.912;8.380;2023-11-22T11:08:28;0.85;;;0.85;;
28086;SDS011;15392;48.912;8.380;2023-11-22T11:11:14;1.40;;;1.30;;
28086;SDS011;15392;48.912;8.380;2023-11-22T11:14:01;1.48;;;1.48;;
28086;SDS011;15392;48.912;8.380;2023-11-22T11:16:49;1.20;;;1.20;;
28086;SDS011;15392;48.912;8.380;2023-11-22T11:19:39;0.80;;;0.80;;
28086;SDS011;15392;48.912;8.380;2023-11-22T11:22:26;1.00;;;1.00;;
28086;SDS011;15392;48.912;8.380;2023-11-22T11:25:14;0.82;;;0.82;;
28086;SDS011;15392;48.912;8.380;2023-11-22T11:28:03;0.85;;;0.85;;
28086;SDS011;15392;48.912;8.380;2023-11-22T11:30:49;1.05;;;1.05;;
28086;SDS011;15392;48.912;8.380;2023-11-22T11:33:52;0.90;;;0.90;;
28086;SDS011;15392;48.912;8.380;2023-11-22T11:36:40;1.02;;;1.02;;
28086;SDS011;15392;48.912;8.380;2023-11-22T11:39:27;1.02;;;1.02;;
28086;SDS011;15392;48.912;8.380;2023-11-22T11:42:16;1.17;;;1.17;;
28086;SDS011;15392;48.912;8.380;2023-11-22T11:45:04;1.00;;;1.00;;
28086;SDS011;15392;48.912;8.380;2023-11-22T11:47:52;1.23;;;1.23;;
28086;SDS011;15392;48.912;8.380;2023-11-22T11:50:38;1.00;;;1.00;;
28086;SDS011;15392;48.912;8.380;2023-11-22T11:53:24;1.33;;;1.33;;
28086;SDS011;15392;48.912;8.380;2023-11-22T11:56:10;0.80;;;0.80;;
28086;SDS011;15392;48.912;8.380;2023-11-22T11:58:57;0.98;;;0.98;;
28086;SDS011;15392;48.912;8.380;2023-11-22T12:01:45;1.00;;;1.00;;
28086;SDS011;15392;48.912;8.380;2023-11-22T12:04:31;1.13;;;1.13;;
28086;SDS011;15392;48.912;8.380;2023-11-22T12:07:19;1.00;;;1.00;;
28086;SDS011;15392;48.912;8.380;2023-11-22T12:10:05;1.08;;;1.08;;
28086;SDS011;15392;48.912;8.380;2023-11-22T12:12:52;0.90;;;0.90;;
28086;SDS011;15392;48.912;8.380;2023-11-22T12:15:38;1.00;;;1.00;;
28086;SDS011;15392;48.912;8.380;2023-11-22T12:18:25;1.30;;;1.30;;
28086;SDS011;15392;48.912;8.380;2023-11-22T12:21:11;1.10;;;1.10;;
28086;SDS011;15392;48.912;8.380;2023-11-22T12:24:00;1.10;;;1.10;;
28086;SDS011;15392;48.912;8.380;2023-11-22T12:26:48;0.85;;;0.85;;
28086;SDS011;15392;48.912;8.380;2023-11-22T12:29:36;1.00;;;1.00;;
28086;SDS011;15392;48.912;8.380;2023-11-22T12:32:23;1.13;;;1.13;;
28086;SDS011;15392;48.912;8.380;2023-11-22T12:35:10;1.10;;;1.05;;
28086;SDS011;15392;48.912;8.380;2023-11-22T12:37:58;1.27;;;1.27;;
28086;SDS011;15392;48.912;8.380;2023-11-22T12:40:46;1.27;;;1.23;;
28086;SDS011;15392;48.912;8.380;2023-11-22T12:43:33;1.10;;;1.10;;
28086;SDS011;15392;48.912;8.380;2023-11-22T12:46:20;1.10;;;1.10;;
28086;SDS011;15392;48.912;8.380;2023-11-22T12:49:06;1.25;;;1.25;;
28086;SDS011;15392;48.912;8.380;2023-11-22T12:51:52;1.35;;;1.35;;
28086;SDS011;15392;48.912;8.380;2023-11-22T12:54:40;1.48;;;1.48;;
28086;SDS011;15392;48.912;8.380;2023-11-22T12:57:26;1.27;;;1.17;;
28086;SDS011;15392;48.912;8.380;2023-11-22T13:00:12;1.10;;;1.10;;
28086;SDS011;15392;48.912;8.380;2023-11-22T13:02:59;1.17;;;1.08;;
28086;SDS011;15392;48.912;8.380;2023-11-22T13:05:45;1.10;;;0.90;;
28086;SDS011;15392;48.912;8.380;2023-11-22T13:08:31;1.08;;;1.08;;
28086;SDS011;15392;48.912;8.380;2023-11-22T13:11:18;0.95;;;0.95;;
28086;SDS011;15392;48.912;8.380;2023-11-22T13:14:04;1.33;;;1.33;;
28086;SDS011;15392;48.912;8.380;2023-11-22T13:16:51;1.88;;;1.80;;
28086;SDS011;15392;48.912;8.380;2023-11-22T13:19:37;1.50;;;1.40;;
28086;SDS011;15392;48.912;8.380;2023-11-22T13:22:24;1.48;;;1.48;;
28086;SDS011;15392;48.912;8.380;2023-11-22T13:25:10;1.08;;;1.08;;
28086;SDS011;15392;48.912;8.380;2023-11-22T13:27:58;1.10;;;1.10;;
28086;SDS011;15392;48.912;8.380;2023-11-22T13:30:45;1.08;;;1.08;;
28086;SDS011;15392;48.912;8.380;2023-11-22T13:33:31;1.00;;;1.00;;
28086;SDS011;15392;48.912;8.380;2023-11-22T13:36:17;0.90;;;0.90;;
28086;SDS011;15392;48.912;8.380;2023-11-22T13:39:03;0.98;;;0.98;;
28086;SDS011;15392;48.912;8.380;2023-11-22T13:41:50;1.10;;;1.10;;
28086;SDS011;15392;48.912;8.380;2023-11-22T13:44:36;0.90;;;0.90;;
28086;SDS011;15392;48.912;8.380;2023-11-22T13:47:22;0.90;;;0.90;;
28086;SDS011;15392;48.912;8.380;2023-11-22T13:50:08;0.93;;;0.93;;
28086;SDS011;15392;48.912;8.380;2023-11-22T13:52:55;0.90;;;0.90;;
28086;SDS011;15392;48.912;8.380;2023-11-22T13:55:42;1.00;;;1.00;;
28086;SDS011;15392;48.912;8.380;2023-11-22T13:58:28;1.30;;;1.30;;
28086;SDS011;15392;48.912;8.380;2023-11-22T14:01:14;1.45;;;1.45;;
28086;SDS011;15392;48.912;8.380;2023-11-22T14:04:06;1.13;;;1.13;;
28086;SDS011;15392;48.912;8.380;2023-11-22T14:06:52;1.10;;;1.10;;
28086;SDS011;15392;48.912;8.380;2023-11-22T14:09:38;1.10;;;1.10;;
28086;SDS011;15392;48.912;8.380;2023-11-22T14:12:24;1.20;;;1.20;;
28086;SDS011;15392;48.912;8.380;2023-11-22T14:15:11;0.90;;;0.90;;
28086;SDS011;15392;48.912;8.380;2023-11-22T14:17:57;1.08;;;1.08;;
28086;SDS011;15392;48.912;8.380;2023-11-22T14:20:43;1.40;;;1.40;;
28086;SDS011;15392;48.912;8.380;2023-11-22T14:23:29;1.10;;;1.10;;
28086;SDS011;15392;48.912;8.380;2023-11-22T14:26:15;1.25;;;1.25;;
28086;SDS011;15392;48.912;8.380;2023-11-22T14:29:01;1.20;;;1.20;;
28086;SDS011;15392;48.912;8.380;2023-11-22T14:31:48;1.88;;;1.77;;
28086;SDS011;15392;48.912;8.380;2023-11-22T14:34:34;1.88;;;1.80;;
28086;SDS011;15392;48.912;8.380;2023-11-22T14:37:20;1.52;;;1.52;;
28086;SDS011;15392;48.912;8.380;2023-11-22T14:40:06;2.83;;;2.63;;
28086;SDS011;15392;48.912;8.380;2023-11-22T14:42:59;3.00;;;2.88;;
28086;SDS011;15392;48.912;8.380;2023-11-22T14:45:45;2.70;;;2.50;;
28086;SDS011;15392;48.912;8.380;2023-11-22T14:48:31;2.55;;;2.45;;
28086;SDS011;15392;48.912;8.380;2023-11-22T14:51:19;2.22;;;2.13;;
28086;SDS011;15392;48.912;8.380;2023-11-22T14:54:04;1.83;;;1.77;;
28086;SDS011;15392;48.912;8.380;2023-11-22T14:56:51;1.42;;;1.42;;
28086;SDS011;15392;48.912;8.380;2023-11-22T14:59:38;1.38;;;1.38;;
28086;SDS011;15392;48.912;8.380;2023-11-22T15:02:24;1.35;;;1.35;;
28086;SDS011;15392;48.912;8.380;2023-11-22T15:05:11;1.48;;;1.48;;
28086;SDS011;15392;48.912;8.380;2023-11-22T15:07:58;1.52;;;1.52;;
28086;SDS011;15392;48.912;8.380;2023-11-22T15:10:44;1.58;;;1.58;;
28086;SDS011;15392;48.912;8.380;2023-11-22T15:13:30;1.25;;;1.25;;
28086;SDS011;15392;48.912;8.380;2023-11-22T15:16:16;1.40;;;1.40;;
28086;SDS011;15392;48.912;8.380;2023-11-22T15:19:04;1.73;;;1.73;;
28086;SDS011;15392;48.912;8.380;2023-11-22T15:21:52;1.95;;;1.90;;
28086;SDS011;15392;48.912;8.380;2023-11-22T15:24:38;1.58;;;1.58;;
28086;SDS011;15392;48.912;8.380;2023-11-22T15:27:24;1.65;;;1.60;;
28086;SDS011;15392;48.912;8.380;2023-11-22T15:30:11;1.63;;;1.63;;
28086;SDS011;15392;48.912;8.380;2023-11-22T15:32:57;1.25;;;1.25;;
28086;SDS011;15392;48.912;8.380;2023-11-22T15:35:43;1.10;;;1.10;;
28086;SDS011;15392;48.912;8.380;2023-11-22T15:38:29;1.13;;;1.13;;
28086;SDS011;15392;48.912;8.380;2023-11-22T15:41:15;1.20;;;1.20;;
28086;SDS011;15392;48.912;8.380;2023-11-22T15:44:01;1.10;;;1.10;;
28086;SDS011;15392;48.912;8.380;2023-11-22T15:46:47;1.10;;;1.10;;
28086;SDS011;15392;48.912;8.380;2023-11-22T15:49:34;1.20;;;1.20;;
28086;SDS011;15392;48.912;8.380;2023-11-22T15:52:20;1.23;;;1.23;;
28086;SDS011;15392;48.912;8.380;2023-11-22T15:55:06;1.10;;;1.10;;
28086;SDS011;15392;48.912;8.380;2023-11-22T15:57:54;1.50;;;0.95;;
28086;SDS011;15392;48.912;8.380;2023-11-22T16:00:40;0.90;;;0.90;;
28086;SDS011;15392;48.912;8.380;2023-11-22T16:03:26;1.10;;;1.10;;
28086;SDS011;15392;48.912;8.380;2023-11-22T16:06:14;1.13;;;1.13;;
28086;SDS011;15392;48.912;8.380;2023-11-22T16:09:00;1.60;;;1.60;;
28086;SDS011;15392;48.912;8.380;2023-11-22T16:11:46;1.50;;;1.50;;
28086;SDS011;15392;48.912;8.380;2023-11-22T16:14:32;1.70;;;1.70;;
28086;SDS011;15392;48.912;8.380;2023-11-22T16:17:18;1.33;;;1.33;;
28086;SDS011;15392;48.912;8.380;2023-11-22T16:20:04;1.20;;;1.20;;
28086;SDS011;15392;48.912;8.380;2023-11-22T16:22:56;1.80;;;1.27;;
28086;SDS011;15392;48.912;8.380;2023-11-22T16:25:42;1.08;;;1.08;;
28086;SDS011;15392;48.912;8.380;2023-11-22T16:28:28;1.10;;;1.10;;
28086;SDS011;15392;48.912;8.380;2023-11-22T16:31:15;0.95;;;0.95;;
28086;SDS011;15392;48.912;8.380;2023-11-22T16:34:01;0.70;;;0.70;;
28086;SDS011;15392;48.912;8.380;2023-11-22T16:36:49;0.70;;;0.70;;
28086;SDS011;15392;48.912;8.380;2023-11-22T16:39:36;3.78;;;3.58;;
28086;SDS011;15392;48.912;8.380;2023-11-22T16:42:22;2.17;;;2.08;;
28086;SDS011;15392;48.912;8.380;2023-11-22T16:45:08;1.10;;;1.10;;